Latest Coastal Weather Observations for South Johnstone

IDQ60701

Issued at 4:55 pm EST Thursday 23 October 2014 (issued every 10 minutes, with the page automatically refreshed every 10 minutes)

About coastal observations | Map of coastal stations | Coastal observations for QLD | Marine services | Other Formats
Station Details ID: 032037 Name: SOUTH JOHNSTONE EXP STN Lat: -17.61 Lon: 146.00 Height: 18.3 m
Data from the previous 72 hours. | See also: Recent months at South Johnstone
Date/Time
EST
Temp

°C
Wind Pressure Rain
since 9am
mm
Weather Cloud Vis
km
Sea
Height
m
Swell
Dir
 
Speed
knots
Gust
knots
hPa Trend Height
m
Period
s
Dir
23/04:30pm 26.4 SE 10 17 1016.2 - 0.0 - - - - - - -
23/04:00pm 26.3 SE 11 14 1015.9 - 0.0 - - - - - - -
23/03:30pm 26.4 SE 10 16 1015.8 - 0.0 - - - - - - -
23/03:00pm 26.9 SE 10 15 1016.1 - 0.0 - - - - - - -
23/02:30pm 25.9 SE 11 18 1016.3 - 0.0 - - - - - - -
23/02:00pm 27.2 SE 10 17 1016.5 - 0.0 - - - - - - -
23/01:30pm 27.0 SE 11 17 1016.8 - 0.0 - - - - - - -
23/01:00pm 26.2 ESE 13 18 1017.2 - 0.0 - - - - - - -
23/12:30pm 27.2 SE 12 19 1017.6 - 0.0 - - - - - - -
23/12:00pm 27.6 SE 11 18 1018.0 - 0.0 - - - - - - -
23/11:30am 27.4 SSE 12 17 1018.4 - 0.0 - - - - - - -
23/11:00am 26.4 SSE 11 19 1018.8 - 0.0 - - - - - - -
23/10:30am 26.5 SE 11 17 1019.0 - 0.0 - - - - - - -
23/10:00am 26.8 SSE 9 14 1019.2 - 0.0 - - - - - - -
23/09:30am 26.6 SE 11 15 1019.4 - 0.0 - - - - - - -
23/09:00am 26.0 SSE 9 13 1019.4 - 0.4 - - - - - - -
23/08:30am 25.7 SSE 10 15 1019.5 - 0.4 - - - - - - -
23/08:00am 23.8 S 7 13 1019.3 - 0.4 - - - - - - -
23/07:30am 23.8 S 7 10 1019.1 - 0.4 - - - - - - -
23/07:00am 20.2 SSW 1 3 1018.8 - 0.4 - - - - - - -
23/06:30am 18.5 NW 1 4 1018.3 - 0.4 - - - - - - -
23/06:00am 18.3 WNW 1 5 1017.9 - 0.4 - - - - - - -
23/05:30am 18.7 S 3 8 1017.8 - 0.4 - - - - - - -
23/05:00am 18.5 W 3 7 1017.5 - 0.4 - - - - - - -
23/04:30am 18.6 W 3 6 1017.3 - 0.4 - - - - - - -
23/04:00am 18.5 W 3 6 1017.2 - 0.4 - - - - - - -
23/03:30am 18.7 NW 3 6 1017.3 - 0.4 - - - - - - -
23/03:00am 19.1 W 1 5 1017.5 - 0.4 - - - - - - -
23/02:30am 19.3 WNW 0 3 1017.8 - 0.4 - - - - - - -
23/02:00am 20.1 SW 2 4 1018.2 - 0.4 - - - - - - -
23/01:30am 21.2 SSW 3 4 1018.5 - 0.4 - - - - - - -
23/01:00am 22.2 S 4 7 1019.0 - 0.4 - - - - - - -
23/12:30am 22.2 S 4 6 1019.3 - 0.4 - - - - - - -
23/12:00am 22.1 S 5 6 1019.6 - 0.4 - - - - - - -
 
Date/Time
EST
Temp

°C
Wind Pressure Rain
since 9am
mm
Weather Cloud Vis
km
Sea
Height
m
Swell
Dir
 
Speed
knots
Gust
knots
hPa Trend Height
m
Period
s
Dir
22/11:30pm 22.2 S 5 7 1019.9 - 0.4 - - - - - - -
22/11:00pm 22.2 S 5 8 1020.1 - 0.4 - - - - - - -
22/10:30pm 22.3 S 4 6 1020.3 - 0.4 - - - - - - -
22/10:00pm 22.4 S 5 7 1020.2 - 0.4 - - - - - - -
22/09:30pm 22.5 S 4 6 1020.1 - 0.4 - - - - - - -
22/09:00pm 22.0 S 4 6 1019.6 - 0.4 - - - - - - -
22/08:30pm 21.6 SSE 2 4 1019.5 - 0.4 - - - - - - -
22/08:00pm 22.5 S 3 6 1019.3 - 0.4 - - - - - - -
22/07:30pm 22.5 SSE 4 6 1019.0 - 0.4 - - - - - - -
22/07:00pm 22.8 SSE 5 7 1018.8 - 0.4 - - - - - - -
22/06:30pm 23.2 SSE 4 7 1018.6 - 0.4 - - - - - - -
22/06:00pm 23.8 SSE 9 15 1018.3 - 0.4 - - - - - - -
22/05:30pm 24.1 SSE 9 13 1018.1 - 0.4 - - - - - - -
22/05:00pm 23.1 SSE 7 12 1017.8 - 0.4 - - - - - - -
22/04:30pm 25.0 SSE 7 10 1017.5 - 0.2 - - - - - - -
22/04:00pm 25.9 SSE 8 13 1017.5 - 0.2 - - - - - - -
22/03:30pm 25.6 SSE 9 15 1017.4 - 0.2 - - - - - - -
22/03:00pm 26.9 SE 9 19 1017.5 - 0.2 - - - - - - -
22/02:30pm 26.0 SE 11 19 1017.8 - 0.2 - - - - - - -
22/02:00pm 25.8 SE 11 18 1018.0 - 0.2 - - - - - - -
22/01:30pm 26.0 ESE 12 22 1018.2 - 0.2 - - - - - - -
22/01:00pm 27.7 SE 13 20 1018.6 - 0.2 - - - - - - -
22/12:30pm 28.0 ESE 12 18 1019.0 - 0.2 - - - - - - -
22/12:00pm 26.9 ESE 12 19 1019.4 - 0.2 - - - - - - -
22/11:30am 27.6 SE 13 21 1019.9 - 0.2 - - - - - - -
22/11:00am 26.8 SE 13 21 1020.2 - 0.2 - - - - - - -
22/10:30am 25.2 ESE 7 16 1020.4 - 0.2 - - - - - - -
22/10:00am 23.5 SE 11 17 1020.6 - 0.0 - - - - - - -
22/09:30am 25.2 ESE 11 17 1020.3 - 0.0 - - - - - - -
22/09:00am 25.3 ESE 12 17 1020.2 - 1.0 - - - - - - -
22/08:30am 24.6 SE 8 12 1020.1 - 1.0 - - - - - - -
22/08:00am 22.7 CALM 0 5 1019.8 - 1.0 - - - - - - -
22/07:30am 21.7 WNW 3 5 1019.5 - 1.0 - - - - - - -
22/07:00am 21.3 W 3 6 1019.0 - 1.0 - - - - - - -
22/06:30am 20.4 WSW 6 9 1018.7 - 1.0 - - - - - - -
22/06:00am 20.8 SW 7 11 1018.3 - 1.0 - - - - - - -
22/05:30am 20.8 S 4 8 1018.1 - 1.0 - - - - - - -
22/05:00am 20.1 ESE 9 13 1018.3 - 1.0 - - - - - - -
22/04:30am 20.1 SE 6 9 1018.2 - 0.8 - - - - - - -
22/04:00am 20.2 SW 1 4 1017.7 - 0.0 - - - - - - -
22/03:30am 20.9 S 2 4 1017.9 - 0.0 - - - - - - -
22/03:00am 21.6 SSW 3 5 1018.0 - 0.0 - - - - - - -
22/02:30am 21.7 S 3 6 1018.3 - 0.0 - - - - - - -
22/02:00am 21.5 SSE 3 6 1018.6 - 0.0 - - - - - - -
22/01:30am 21.7 S 4 7 1019.0 - 0.0 - - - - - - -
22/01:00am 21.9 S 4 9 1019.5 - 0.0 - - - - - - -
22/12:30am 22.1 SSE 4 6 1020.0 - 0.0 - - - - - - -
22/12:00am 22.3 SSE 5 7 1020.4 - 0.0 - - - - - - -
 
Date/Time
EST
Temp

°C
Wind Pressure Rain
since 9am
mm
Weather Cloud Vis
km
Sea
Height
m
Swell
Dir
 
Speed
knots
Gust
knots
hPa Trend Height
m
Period
s
Dir
21/11:30pm 22.3 S 4 7 1020.9 - 0.0 - - - - - - -
21/11:00pm 21.7 SSE 4 5 1021.1 - 0.0 - - - - - - -
21/10:30pm 22.3 SSE 4 6 1021.1 - 0.0 - - - - - - -
21/10:00pm 22.5 S 5 9 1021.1 - 0.0 - - - - - - -
21/09:30pm 22.6 S 5 7 1021.1 - 0.0 - - - - - - -
21/09:00pm 23.0 SSE 5 10 1020.6 - 0.0 - - - - - - -
21/08:30pm 23.1 S 5 7 1020.4 - 0.0 - - - - - - -
21/08:00pm 23.5 S 6 9 1020.1 - 0.0 - - - - - - -
21/07:30pm 23.7 SSE 7 13 1020.0 - 0.0 - - - - - - -
21/07:00pm 23.8 SE 8 12 1019.7 - 0.0 - - - - - - -
21/06:30pm 24.0 SE 11 14 1019.4 - 0.0 - - - - - - -
21/06:00pm 24.2 SE 10 15 1019.0 - 0.0 - - - - - - -
21/05:30pm 24.5 SE 13 22 1018.7 - 0.0 - - - - - - -
21/05:00pm 24.6 SE 12 18 1018.4 - 0.0 - - - - - - -
21/04:30pm 24.8 SE 13 19 1018.1 - 0.0 - - - - - - -
21/04:00pm 25.1 SE 13 18 1018.1 - 0.0 - - - - - - -
21/03:30pm 25.3 SE 13 20 1018.2 - 0.0 - - - - - - -
21/03:00pm 25.5 SE 13 20 1018.1 - 0.0 - - - - - - -
21/02:30pm 25.8 SE 12 20 1018.3 - 0.0 - - - - - - -
21/02:00pm 26.0 SE 12 18 1018.5 - 0.0 - - - - - - -
21/01:30pm 26.5 ESE 13 21 1018.9 - 0.0 - - - - - - -
21/01:00pm 26.3 SSE 12 18 1019.1 - 0.0 - - - - - - -
21/12:30pm 27.7 SE 13 20 1019.2 - 0.0 - - - - - - -
21/12:00pm 26.1 SE 12 18 1019.5 - 0.0 - - - - - - -
21/11:30am 26.0 SE 11 17 1019.9 - 0.0 - - - - - - -
21/11:00am 26.0 SE 13 20 1020.1 - 0.0 - - - - - - -
21/10:30am 26.1 SSE 13 18 1020.3 - 0.0 - - - - - - -
21/10:00am 25.5 SE 12 18 1020.5 - 0.0 - - - - - - -
21/09:30am 26.1 ESE 11 19 1020.4 - 0.0 - - - - - - -
21/09:00am 25.5 SE 12 18 1020.1 - 0.4 - - - - - - -
21/08:30am 25.1 SE 9 17 1020.0 - 0.4 - - - - - - -
21/08:00am 23.0 SE 5 12 1019.9 - 0.0 - - - - - - -
21/07:30am 23.2 SE 6 10 1019.5 - 0.0 - - - - - - -
21/07:00am 21.2 WNW 3 5 1019.1 - 0.0 - - - - - - -
21/06:30am 19.0 WNW 2 5 1018.8 - 0.0 - - - - - - -
21/06:00am 18.6 WNW 2 5 1018.4 - 0.0 - - - - - - -
21/05:30am 18.5 NW 1 5 1018.4 - 0.0 - - - - - - -
21/05:00am 18.8 W 3 5 1018.1 - 0.0 - - - - - - -
21/04:30am 19.1 W 3 5 1017.8 - 0.0 - - - - - - -
21/04:00am 19.7 CALM 0 3 1017.7 - 0.0 - - - - - - -
21/03:30am 21.2 S 4 6 1017.5 - 0.0 - - - - - - -
21/03:00am 20.4 WSW 5 7 1017.6 - 0.0 - - - - - - -
21/02:30am 21.2 CALM 0 0 1017.9 - 0.0 - - - - - - -
21/02:00am 21.7 SSE 5 7 1018.4 - 0.0 - - - - - - -
21/01:30am 22.2 S 5 9 1018.6 - 0.0 - - - - - - -
21/01:00am 22.0 S 4 7 1019.0 - 0.0 - - - - - - -
21/12:30am 21.4 S 2 4 1019.4 - 0.0 - - - - - - -
21/12:00am 21.9 S 4 6 1019.7 - 0.0 - - - - - - -
 
Date/Time
EST
Temp

°C
Wind Pressure Rain
since 9am
mm
Weather Cloud Vis
km
Sea
Height
m
Swell
Dir
 
Speed
knots
Gust
knots
hPa Trend Height
m
Period
s
Dir
20/11:30pm 22.2 S 5 9 1020.0 - 0.0 - - - - - - -
20/11:00pm 22.1 S 4 6 1020.3 - 0.0 - - - - - - -
20/10:30pm 22.1 SSE 3 7 1020.3 - 0.0 - - - - - - -
20/10:00pm 22.2 S 5 8 1020.4 - 0.0 - - - - - - -
20/09:30pm 21.8 SSE 3 5 1020.3 - 0.0 - - - - - - -
20/09:00pm 22.1 S 4 7 1020.0 - 0.0 - - - - - - -
20/08:30pm 22.3 SSE 4 6 1019.7 - 0.0 - - - - - - -
20/08:00pm 22.3 S 4 6 1019.4 - 0.0 - - - - - - -
20/07:30pm 22.8 S 4 5 1019.2 - 0.0 - - - - - - -
20/07:00pm 22.8 CALM 0 0 1018.8 - 0.0 - - - - - - -
20/06:30pm 23.0 SSE 4 6 1018.4 - 0.0 - - - - - - -
20/06:00pm 23.7 SE 8 14 1018.0 - 0.0 - - - - - - -
20/05:30pm 24.5 SE 10 14 1017.8 - 0.0 - - - - - - -
20/05:00pm 25.5 SE 10 16 1017.5 - 0.0 - - - - - - -

Other Formats:

Comma delimited format used in spreadsheet applications
http://www.bom.gov.au/fwo/IDQ60701/IDQ60701.95292.axf

JavaScript Object Notation format (JSON) in row-major order
http://www.bom.gov.au/fwo/IDQ60701/IDQ60701.95292.json